Startpagina
METAR-TAF:

METAR-TAF

Vliegvelden :

Gəncə, Azerbeidzjan

breedte: 40-44N, lengte: 046-24E, hoogte: 330 m

Actueel weer

Dit bericht is 28 minuten geleden gemaakt, om 19:00 UTC
Wind 6 kt uit het zuiden
Temperatuur 3°C
Vochtigheid 60%
Druk 1028 hPa
Zicht 10 km of meer
Weinig wolken op 10000 ft

METAR: UBBG 181900Z 19006KT 9999 FEW100 03/M04 Q1028 R30/CLRD// NOSIG

Tijdstip: 23:28 (19:28 UTC)

Verwachting

Dit bericht is 2 uur en het 28 minuten geleden gemaakt, om 17:00 UTC
Verwachting geldig van 18 om 18 UTC tot 19 om 18 UTC
Wind 4 kt uit variabele richting
Zicht 10 km of meer
Weinig wolken op 5000 ft
Verspreide wolken op 10000 ft
Tijdelijke
van 18 om 20 UTC tot 18 om 24 UTC
Wind 8 kt uit het westzuidwesten

TAF: UBBG 181700Z 1818/1918 VRB04KT 9999 FEW050 SCT100 TX11/1912Z TNM01/1903Z TEMPO 1820/1824 24008KT

Waarnemingen en weersverwachtingen van meer dan 4000 vliegvelden (METAR en TAF).

De beschikbare stations zijn de gele en rode punten op de kaart.

Ga met uw muis naar het station om de naam te zien.

Klik dan om waarnemingen en weersverwachtingen te zien.

kaart wijzigen: klik op de groene knoppen met een zwart kruis om in te zoomen, op de groene knop met een streepje om uit te zoomen of op de groene pijlen voor aangrenzende kaarten.


METAR-TAF: